createdAt,value
2022-08-08T00:00:53.525Z,72.92
2022-08-08T00:03:00.810Z,72.99
2022-08-08T00:06:02.686Z,73.17
2022-08-08T00:08:49.931Z,73.27
2022-08-08T00:11:26.450Z,73.57
2022-08-08T00:14:57.156Z,73.74
2022-08-08T00:17:22.670Z,73.95
2022-08-08T00:19:58.486Z,74.19
2022-08-08T00:22:31.667Z,74.26
2022-08-08T00:25:04.423Z,74.62
2022-08-08T00:27:42.133Z,75.12
2022-08-08T00:30:15.533Z,75.14
2022-08-08T00:32:47.548Z,75.29
2022-08-08T00:35:37.656Z,75.98
2022-08-08T00:38:31.156Z,76.35
2022-08-08T00:42:08.364Z,76.60
2022-08-08T00:45:21.559Z,76.81
2022-08-08T00:48:35.952Z,76.88
2022-08-08T00:51:38.847Z,77.05
2022-08-08T00:54:45.949Z,77.69
2022-08-08T00:57:40.828Z,77.55
2022-08-08T01:00:13.238Z,77.50
2022-08-08T01:04:01.885Z,78.29
2022-08-08T01:06:29.055Z,78.54
2022-08-08T01:09:35.849Z,78.67
2022-08-08T01:12:46.940Z,79.16
2022-08-08T01:15:44.065Z,79.22
2022-08-08T01:19:25.345Z,79.32
2022-08-08T01:22:32.343Z,79.32
2022-08-08T01:25:43.113Z,79.86
2022-08-08T01:28:28.177Z,79.97
2022-08-08T01:32:12.739Z,80.04
2022-08-08T01:35:11.197Z,80.55
2022-08-08T01:38:15.461Z,80.45
2022-08-08T01:40:54.335Z,80.50
2022-08-08T01:43:40.937Z,80.88
2022-08-08T01:46:29.018Z,80.84
2022-08-08T01:49:10.828Z,80.80
2022-08-08T01:52:43.591Z,81.41
2022-08-08T01:56:04.567Z,81.35
2022-08-08T01:58:11.101Z,81.47
2022-08-08T02:00:49.026Z,81.68
2022-08-08T02:03:49.265Z,81.79
2022-08-08T02:06:37.030Z,81.85
2022-08-08T02:10:01.661Z,82.00
2022-08-08T02:12:19.848Z,82.07
2022-08-08T02:14:55.767Z,82.44
2022-08-08T02:17:42.350Z,82.43
2022-08-08T02:21:02.528Z,82.70
2022-08-08T02:23:20.058Z,82.98
2022-08-08T02:25:56.328Z,83.38
2022-08-08T02:28:48.607Z,83.70
2022-08-08T02:32:00.772Z,83.76
2022-08-08T02:35:13.738Z,83.87
2022-08-08T02:38:02.725Z,83.98
2022-08-08T02:40:45.334Z,84.00
2022-08-08T02:44:38.105Z,84.53
2022-08-08T02:46:58.312Z,84.64
2022-08-08T02:49:51.250Z,84.70
2022-08-08T02:53:01.125Z,85.21
2022-08-08T02:56:03.800Z,85.31
2022-08-08T02:59:36.875Z,85.59
2022-08-08T03:02:50.221Z,85.83
2022-08-08T03:05:44.949Z,86.36
2022-08-08T03:08:52.115Z,86.67
2022-08-08T03:12:36.059Z,86.79
2022-08-08T03:15:56.986Z,86.77
2022-08-08T03:18:13.614Z,87.32
2022-08-08T03:20:46.812Z,87.30
2022-08-08T03:23:19.048Z,87.48
2022-08-08T03:25:50.205Z,88.41
2022-08-08T03:28:22.765Z,88.63
2022-08-08T03:31:07.862Z,88.59
2022-08-08T03:33:55.647Z,89.16
2022-08-08T03:36:30.361Z,88.98
2022-08-08T03:39:07.915Z,89.23
2022-08-08T03:42:27.937Z,89.49
2022-08-08T03:44:35.531Z,89.64
2022-08-08T03:47:14.027Z,89.84
2022-08-08T03:49:59.805Z,89.98
2022-08-08T03:52:32.506Z,90.47
2022-08-08T03:55:19.830Z,90.53
2022-08-08T03:58:30.523Z,91.04
2022-08-08T04:01:01.652Z,91.09
2022-08-08T04:03:58.458Z,91.56
2022-08-08T04:06:24.684Z,91.66
2022-08-08T04:08:58.057Z,91.85
2022-08-08T04:11:27.623Z,91.86
2022-08-08T04:14:33.065Z,92.27
2022-08-08T04:16:49.457Z,92.58
2022-08-08T04:19:24.004Z,92.69
2022-08-08T04:21:54.210Z,93.04
2022-08-08T04:24:29.281Z,93.36
2022-08-08T04:27:00.966Z,93.38
2022-08-08T04:29:33.211Z,93.41
2022-08-08T04:32:06.678Z,93.50
2022-08-08T04:34:42.898Z,94.03
2022-08-08T04:37:26.377Z,94.09
2022-08-08T04:40:06.676Z,94.05
2022-08-08T04:42:37.542Z,94.23
2022-08-08T04:45:24.426Z,94.31
2022-08-08T04:47:53.880Z,94.55
2022-08-08T04:50:25.367Z,94.87
2022-08-08T04:53:00.710Z,94.96
2022-08-08T04:55:47.828Z,95.24
2022-08-08T04:58:22.633Z,95.09
2022-08-08T05:00:51.604Z,95.13
2022-08-08T05:04:08.190Z,94.98
2022-08-08T05:06:13.309Z,94.93
2022-08-08T05:08:51.536Z,94.96
2022-08-08T05:11:24.592Z,94.94
2022-08-08T05:14:01.079Z,95.11
2022-08-08T05:16:54.355Z,94.85
2022-08-08T05:20:10.731Z,94.63
2022-08-08T05:22:07.310Z,94.64
2022-08-08T05:24:37.427Z,94.54
2022-08-08T05:27:06.533Z,94.42
2022-08-08T05:29:36.709Z,94.40
2022-08-08T05:32:07.579Z,94.02
2022-08-08T05:34:38.501Z,93.87
2022-08-08T05:37:15.988Z,93.49
2022-08-08T05:39:51.260Z,93.17
2022-08-08T05:42:25.592Z,92.94
2022-08-08T05:45:00.616Z,92.78
2022-08-08T05:47:41.560Z,92.58
2022-08-08T05:50:19.115Z,92.25
2022-08-08T05:52:49.147Z,92.02
2022-08-08T05:55:17.050Z,91.62
2022-08-08T05:58:04.293Z,91.44
2022-08-08T06:00:36.348Z,91.07
2022-08-08T06:03:24.954Z,90.84
2022-08-08T06:05:56.719Z,90.67
2022-08-08T06:08:34.549Z,90.43
2022-08-08T06:11:04.359Z,89.96
2022-08-08T06:13:36.300Z,89.46
2022-08-08T06:16:19.221Z,89.07
2022-08-08T06:18:55.412Z,88.81
2022-08-08T06:21:32.551Z,88.12
2022-08-08T06:24:23.212Z,87.43
2022-08-08T06:27:04.802Z,87.06
2022-08-08T06:29:59.563Z,86.43
2022-08-08T06:32:30.931Z,85.91
2022-08-08T06:36:03.906Z,85.31
2022-08-08T06:37:57.965Z,85.06
2022-08-08T06:40:30.461Z,84.17
2022-08-08T06:43:05.656Z,83.62
2022-08-08T06:45:36.537Z,83.19
2022-08-08T06:48:08.634Z,82.47
2022-08-08T06:50:39.538Z,82.09
2022-08-08T06:53:14.077Z,81.89
2022-08-08T06:56:01.908Z,81.25
2022-08-08T06:58:33.766Z,80.56
2022-08-08T07:01:24.542Z,80.01
2022-08-08T07:04:37.357Z,79.66
2022-08-08T07:06:51.668Z,79.26
2022-08-08T07:09:21.881Z,78.44
2022-08-08T07:11:59.252Z,77.80
2022-08-08T07:14:34.847Z,76.50
2022-08-08T07:17:09.514Z,76.04
2022-08-08T07:19:56.004Z,75.68
2022-08-08T07:22:38.807Z,75.79
2022-08-08T07:25:11.054Z,77.22
2022-08-08T07:28:02.597Z,76.05
2022-08-08T07:30:35.585Z,71.05
2022-08-08T07:33:05.125Z,67.41
2022-08-08T07:35:35.564Z,65.80
2022-08-08T07:38:18.257Z,64.18
2022-08-08T07:43:32.347Z,60.32
2022-08-08T07:46:23.630Z,59.29
2022-08-08T07:48:52.947Z,57.77
2022-08-08T07:51:45.348Z,55.41
2022-08-08T07:54:26.464Z,53.99
2022-08-08T07:57:04.147Z,52.94
2022-08-08T07:59:48.541Z,52.77
2022-08-08T08:02:35.397Z,50.86
2022-08-08T08:05:15.384Z,50.44
2022-08-08T08:07:53.184Z,50.26
2022-08-08T08:10:30.409Z,50.85
2022-08-08T08:13:26.042Z,50.14
2022-08-08T08:16:17.156Z,49.42
2022-08-08T08:18:55.547Z,47.72
2022-08-08T08:21:44.071Z,47.66
2022-08-08T08:24:16.346Z,46.95
2022-08-08T08:26:52.925Z,46.37
2022-08-08T08:29:23.003Z,45.34
2022-08-08T08:31:53.989Z,43.62
2022-08-08T08:34:32.407Z,43.78
2022-08-08T08:37:03.351Z,45.20
2022-08-08T08:40:00.315Z,45.30
2022-08-08T08:42:35.118Z,44.26
2022-08-08T08:45:21.594Z,42.98
2022-08-08T08:47:54.226Z,42.54
2022-08-08T08:50:32.084Z,41.38
2022-08-08T08:53:54.482Z,39.91
2022-08-08T08:56:01.952Z,40.23
2022-08-08T08:58:33.249Z,39.60
2022-08-08T09:01:10.473Z,38.44
2022-08-08T09:03:47.834Z,39.23
2022-08-08T09:06:28.197Z,39.29
2022-08-08T09:09:07.499Z,39.06
2022-08-08T09:12:01.409Z,40.41
2022-08-08T09:14:34.782Z,38.94
2022-08-08T09:17:09.668Z,37.90
2022-08-08T09:22:00.131Z,38.44
2022-08-08T09:22:28.609Z,37.95
2022-08-08T09:24:59.987Z,38.03
2022-08-08T09:27:55.984Z,36.53
2022-08-08T09:30:20.208Z,36.44
2022-08-08T09:33:55.493Z,36.07
2022-08-08T09:35:49.751Z,35.46
2022-08-08T09:38:33.125Z,35.70
2022-08-08T09:41:06.743Z,34.61
2022-08-08T09:44:05.322Z,35.46
2022-08-08T09:46:45.611Z,35.74
2022-08-08T09:49:42.204Z,35.11
2022-08-08T09:52:55.557Z,34.41
2022-08-08T09:55:10.067Z,34.68
2022-08-08T09:57:55.657Z,34.93
2022-08-08T10:00:56.724Z,34.11
2022-08-08T10:03:20.027Z,33.73
2022-08-08T10:05:48.455Z,34.02
2022-08-08T10:08:19.818Z,35.33
2022-08-08T10:10:51.204Z,36.15
2022-08-08T10:13:26.046Z,37.13
2022-08-08T10:16:03.542Z,37.35
2022-08-08T10:18:34.511Z,37.89
2022-08-08T10:21:23.040Z,36.59
2022-08-08T10:23:58.885Z,36.11
2022-08-08T10:26:52.319Z,36.72
2022-08-08T10:29:56.926Z,37.22
2022-08-08T10:32:50.684Z,37.99
2022-08-08T10:36:08.801Z,38.58
2022-08-08T10:38:16.754Z,39.83
2022-08-08T10:40:46.453Z,39.72
2022-08-08T10:43:14.665Z,39.27
2022-08-08T10:45:55.745Z,38.49
2022-08-08T10:48:38.789Z,37.75
2022-08-08T10:51:24.177Z,37.96
2022-08-08T10:53:57.282Z,37.50
2022-08-08T10:56:32.276Z,36.88
2022-08-08T10:59:01.640Z,36.38
2022-08-08T11:01:33.661Z,36.46
2022-08-08T11:04:10.394Z,36.48
2022-08-08T11:06:41.935Z,35.43
2022-08-08T11:09:21.321Z,35.52
2022-08-08T11:12:05.565Z,34.88
2022-08-08T11:14:57.237Z,34.86
2022-08-08T11:18:01.380Z,34.59
2022-08-08T11:20:24.996Z,35.51
2022-08-08T11:22:57.459Z,35.95
2022-08-08T11:25:52.963Z,35.27
2022-08-08T11:28:25.554Z,34.04
2022-08-08T11:30:57.047Z,34.66
2022-08-08T11:33:35.333Z,35.88
2022-08-08T11:36:20.328Z,36.42
2022-08-08T11:38:55.226Z,34.61
2022-08-08T11:41:24.940Z,34.54
2022-08-08T11:43:57.883Z,33.95
2022-08-08T11:46:30.571Z,33.23
2022-08-08T11:49:01.505Z,33.01
2022-08-08T11:51:39.879Z,31.93
2022-08-08T11:54:27.395Z,32.45
2022-08-08T11:57:13.978Z,34.92
2022-08-08T12:00:00.933Z,35.12
2022-08-08T12:02:34.244Z,33.64
2022-08-08T12:05:05.217Z,32.66
2022-08-08T12:07:49.544Z,32.39
2022-08-08T12:10:21.909Z,30.38
2022-08-08T12:12:51.878Z,30.10
2022-08-08T12:15:42.498Z,31.34
2022-08-08T12:18:21.412Z,31.24
2022-08-08T12:20:53.091Z,30.50
2022-08-08T12:23:42.657Z,30.44
2022-08-08T12:26:17.162Z,31.86
2022-08-08T12:28:57.146Z,30.54
2022-08-08T12:31:39.427Z,30.37
2022-08-08T12:34:37.578Z,30.40
2022-08-08T12:37:08.664Z,29.54
2022-08-08T12:39:59.944Z,28.81
2022-08-08T12:42:33.873Z,29.14
2022-08-08T12:45:54.930Z,28.76
2022-08-08T12:48:09.651Z,27.69
2022-08-08T12:50:46.824Z,27.93
2022-08-08T12:53:30.155Z,28.25
2022-08-08T12:56:18.997Z,26.42
2022-08-08T12:58:55.242Z,26.87
2022-08-08T13:01:36.840Z,28.74
2022-08-08T13:04:18.983Z,27.17
2022-08-08T13:07:02.825Z,26.29
2022-08-08T13:09:33.929Z,25.46
2022-08-08T13:12:29.604Z,24.44
2022-08-08T13:14:59.369Z,23.63
2022-08-08T13:18:09.717Z,24.35
2022-08-08T13:20:18.548Z,24.13
2022-08-08T13:22:47.579Z,25.05
2022-08-08T13:25:16.703Z,24.89
2022-08-08T13:27:53.031Z,25.74
2022-08-08T13:30:26.409Z,26.18
2022-08-08T13:32:57.559Z,27.14
2022-08-08T13:35:38.295Z,28.11
2022-08-08T13:38:08.467Z,28.49
2022-08-08T13:40:41.436Z,29.31
2022-08-08T13:43:16.140Z,27.67
2022-08-08T13:45:47.622Z,26.53
2022-08-08T13:48:25.111Z,26.07
2022-08-08T13:50:57.942Z,26.94
2022-08-08T13:53:53.243Z,26.45
2022-08-08T13:56:32.318Z,27.32
2022-08-08T13:59:01.774Z,28.31
2022-08-08T14:01:32.664Z,29.22
2022-08-08T14:04:23.086Z,30.70
2022-08-08T14:06:59.352Z,30.55
2022-08-08T14:10:05.882Z,31.42
2022-08-08T14:12:28.206Z,31.91
2022-08-08T14:14:58.859Z,31.71
2022-08-08T14:17:58.105Z,31.36
2022-08-08T14:20:57.910Z,30.22
2022-08-08T14:23:10.068Z,30.08
2022-08-08T14:25:46.610Z,29.84
2022-08-08T14:28:23.623Z,28.98
2022-08-08T14:31:09.593Z,27.91
2022-08-08T14:33:39.274Z,27.66
2022-08-08T14:36:11.460Z,27.39
2022-08-08T14:38:52.699Z,27.47
2022-08-08T14:41:53.140Z,26.26
2022-08-08T14:44:21.009Z,25.25
2022-08-08T14:47:01.276Z,24.92
2022-08-08T14:49:37.842Z,24.93
2022-08-08T14:52:21.292Z,26.74
2022-08-08T14:54:51.002Z,26.69
2022-08-08T14:57:20.490Z,25.18
2022-08-08T14:59:56.273Z,24.59
2022-08-08T15:02:31.255Z,24.98
2022-08-08T15:05:08.116Z,25.76
2022-08-08T15:07:40.200Z,26.36
2022-08-08T15:10:12.545Z,25.89
2022-08-08T15:12:41.906Z,25.19
2022-08-08T15:15:18.722Z,24.97
2022-08-08T15:18:03.877Z,23.70
2022-08-08T15:20:32.180Z,23.87
2022-08-08T15:23:01.648Z,23.32
2022-08-08T15:25:33.190Z,23.25
2022-08-08T15:28:32.773Z,23.81
2022-08-08T15:30:50.765Z,23.26
2022-08-08T15:33:21.095Z,23.46
2022-08-08T15:36:03.731Z,24.03
2022-08-08T15:38:31.794Z,25.34
2022-08-08T15:41:00.661Z,25.66
2022-08-08T15:43:35.604Z,26.62
2022-08-08T15:46:04.977Z,26.70
2022-08-08T15:48:34.468Z,26.26
2022-08-08T15:51:06.231Z,26.75
2022-08-08T15:53:48.968Z,26.65
2022-08-08T15:56:20.068Z,25.61
2022-08-08T15:58:50.224Z,25.63
2022-08-08T16:01:18.516Z,26.22
2022-08-08T16:03:51.467Z,26.35
2022-08-08T16:06:28.808Z,25.62
2022-08-08T16:13:01.954Z,26.45
2022-08-08T16:13:20.913Z,26.34
2022-08-08T16:14:39.061Z,24.60
2022-08-08T16:17:57.682Z,23.01
2022-08-08T16:20:13.479Z,22.93
2022-08-08T16:22:42.494Z,23.34
2022-08-08T16:25:17.512Z,22.77
2022-08-08T16:27:56.988Z,22.92
2022-08-08T16:30:32.432Z,23.53
2022-08-08T16:33:04.697Z,23.90
2022-08-08T16:35:36.512Z,24.82
2022-08-08T16:38:04.519Z,24.26
2022-08-08T16:40:36.629Z,23.91
2022-08-08T16:43:05.942Z,23.57
2022-08-08T16:46:39.279Z,23.99
2022-08-08T16:48:24.574Z,24.13
2022-08-08T16:51:01.894Z,24.00
2022-08-08T16:55:06.465Z,23.65
2022-08-08T16:56:18.230Z,23.99
2022-08-08T16:58:47.313Z,24.01
2022-08-08T17:01:17.798Z,24.47
2022-08-08T17:04:01.464Z,25.52
2022-08-08T17:06:43.251Z,26.02
2022-08-08T17:09:14.987Z,26.25
2022-08-08T17:11:49.034Z,26.38
2022-08-08T17:14:27.004Z,26.53
2022-08-08T17:17:02.485Z,26.70
2022-08-08T17:19:41.005Z,26.72
2022-08-08T17:22:12.436Z,26.86
2022-08-08T17:24:40.932Z,27.43
2022-08-08T17:27:08.963Z,28.50
2022-08-08T17:29:43.377Z,28.37
2022-08-08T17:32:12.208Z,29.56
2022-08-08T17:35:52.958Z,30.28
2022-08-08T17:37:32.580Z,30.90
2022-08-08T17:40:10.496Z,31.07
2022-08-08T17:42:41.204Z,31.38
2022-08-08T17:45:23.660Z,32.32
2022-08-08T17:47:54.088Z,32.36
2022-08-08T17:50:24.094Z,33.22
2022-08-08T17:52:53.961Z,33.27
2022-08-08T17:56:06.837Z,33.68
2022-08-08T17:58:13.782Z,33.55
2022-08-08T18:00:41.894Z,34.34
2022-08-08T18:03:15.849Z,34.46
2022-08-08T18:05:49.210Z,34.65
2022-08-08T18:08:40.870Z,35.04
2022-08-08T18:11:11.689Z,34.92
2022-08-08T18:13:42.053Z,35.39
2022-08-08T18:16:11.556Z,35.43
2022-08-08T18:18:42.675Z,36.00
2022-08-08T18:21:24.902Z,36.01
2022-08-08T18:24:01.001Z,36.06
2022-08-08T18:26:30.431Z,36.15
2022-08-08T18:28:58.474Z,36.41
2022-08-08T18:31:28.727Z,36.67
2022-08-08T18:34:12.247Z,36.72
2022-08-08T18:36:45.161Z,36.88
2022-08-08T18:39:16.457Z,36.73
2022-08-08T18:42:01.098Z,37.13
2022-08-08T18:44:35.864Z,37.33
2022-08-08T18:47:04.806Z,37.61
2022-08-08T18:49:57.389Z,37.39
2022-08-08T18:52:23.343Z,37.69
2022-08-08T18:54:59.273Z,37.93
2022-08-08T18:57:40.961Z,37.87
2022-08-08T19:00:16.507Z,38.48
2022-08-08T19:02:56.566Z,38.61
2022-08-08T19:05:30.468Z,38.58
2022-08-08T19:08:04.171Z,38.69
2022-08-08T19:10:33.560Z,39.70
2022-08-08T19:13:03.237Z,41.32
2022-08-08T19:15:33.871Z,43.49
2022-08-08T19:18:33.446Z,44.78
2022-08-08T19:20:54.499Z,45.54
2022-08-08T19:23:22.879Z,46.22
2022-08-08T19:26:01.515Z,46.55
2022-08-08T19:28:36.609Z,47.37
2022-08-08T19:31:08.933Z,48.52
2022-08-08T19:33:51.997Z,49.07
2022-08-08T19:36:28.289Z,49.92
2022-08-08T19:38:56.966Z,50.83
2022-08-08T19:41:30.537Z,51.85
2022-08-08T19:44:04.140Z,52.17
2022-08-08T19:46:40.659Z,52.65
2022-08-08T19:49:09.606Z,53.46
2022-08-08T19:51:41.549Z,54.09
2022-08-08T19:54:12.788Z,54.60
2022-08-08T19:56:48.908Z,54.89
2022-08-08T19:59:18.879Z,55.34
2022-08-08T20:02:03.527Z,55.88
2022-08-08T20:04:33.025Z,56.29
2022-08-08T20:07:05.069Z,56.67
2022-08-08T20:09:56.293Z,56.76
2022-08-08T20:12:32.731Z,57.71
2022-08-08T20:15:14.145Z,58.06
2022-08-08T20:17:45.343Z,58.32
2022-08-08T20:20:19.183Z,58.63
2022-08-08T20:22:53.732Z,59.33
2022-08-08T20:25:29.605Z,60.39
2022-08-08T20:28:07.000Z,61.06
2022-08-08T20:30:55.651Z,61.43
2022-08-08T20:35:57.016Z,62.21
2022-08-08T20:38:32.731Z,62.31
2022-08-08T20:41:05.432Z,62.76
2022-08-08T20:43:43.672Z,63.11
2022-08-08T20:46:16.196Z,63.57
2022-08-08T20:48:47.861Z,63.85
2022-08-08T20:51:16.058Z,64.10
2022-08-08T20:54:00.176Z,64.28
2022-08-08T20:56:35.290Z,64.36
2022-08-08T20:59:09.214Z,65.04
2022-08-08T21:02:06.628Z,65.86
2022-08-08T21:04:27.322Z,65.93
2022-08-08T21:06:56.263Z,66.56
2022-08-08T21:09:31.433Z,66.92
2022-08-08T21:12:03.053Z,67.16
2022-08-08T21:14:34.424Z,67.64
2022-08-08T21:17:06.426Z,67.79
2022-08-08T21:19:45.217Z,68.13
2022-08-08T21:22:15.714Z,68.58
2022-08-08T21:24:52.682Z,68.95
2022-08-08T21:28:06.398Z,69.88
2022-08-08T21:30:18.545Z,70.10
2022-08-08T21:32:52.242Z,70.17
2022-08-08T21:36:14.784Z,70.43
2022-08-08T21:38:16.794Z,70.53
2022-08-08T21:40:55.964Z,70.80
2022-08-08T21:43:33.243Z,70.95
2022-08-08T21:48:05.839Z,71.42
2022-08-08T21:48:54.003Z,71.58
2022-08-08T21:54:18.739Z,71.88
2022-08-08T21:54:32.948Z,72.41
2022-08-08T21:57:01.005Z,72.69
2022-08-08T21:59:44.105Z,73.22
2022-08-08T22:02:19.646Z,73.56
2022-08-08T22:04:51.481Z,74.03
2022-08-08T22:07:19.658Z,74.49
2022-08-08T22:09:47.618Z,74.75
2022-08-08T22:12:16.869Z,75.09
2022-08-08T22:14:50.074Z,75.25
2022-08-08T22:17:21.957Z,75.47
2022-08-08T22:20:12.215Z,75.62
2022-08-08T22:22:39.220Z,75.79
2022-08-08T22:25:12.325Z,76.17
2022-08-08T22:28:03.986Z,76.44
2022-08-08T22:30:40.443Z,76.72
2022-08-08T22:34:11.033Z,77.21
2022-08-08T22:36:05.663Z,77.38
2022-08-08T22:38:48.500Z,77.54
2022-08-08T22:41:21.458Z,77.56
2022-08-08T22:44:02.102Z,77.89
2022-08-08T22:46:33.094Z,77.85
2022-08-08T22:49:03.513Z,78.08
2022-08-08T22:51:34.980Z,77.93
2022-08-08T22:54:31.844Z,78.10
2022-08-08T22:56:59.387Z,77.98
2022-08-08T22:59:36.070Z,78.23
2022-08-08T23:02:19.752Z,78.12
2022-08-08T23:04:57.932Z,78.33
2022-08-08T23:07:51.982Z,78.54
2022-08-08T23:10:21.314Z,78.51
2022-08-08T23:12:51.587Z,78.73
2022-08-08T23:16:37.967Z,78.70
2022-08-08T23:18:11.869Z,79.14
2022-08-08T23:20:43.762Z,79.30
2022-08-08T23:23:12.709Z,79.35
2022-08-08T23:25:47.793Z,79.53
2022-08-08T23:28:17.755Z,79.83
2022-08-08T23:30:46.102Z,80.08
2022-08-08T23:33:19.464Z,80.06
2022-08-08T23:36:07.827Z,80.05
2022-08-08T23:38:41.895Z,80.35
2022-08-08T23:41:23.189Z,80.25
2022-08-08T23:43:54.221Z,80.41
2022-08-08T23:49:08.139Z,80.37
2022-08-08T23:49:15.573Z,80.41
2022-08-08T23:52:07.154Z,80.60
2022-08-08T23:54:41.978Z,80.65
2022-08-08T23:57:26.480Z,80.73
